sensor_id;sensor_type;location;lat;lon;timestamp;P1;durP1;ratioP1;P2;durP2;ratioP2
31537;SDS011;18147;51.952;6.146;2023-02-28T00:00:20;18.05;;;8.57;;
31537;SDS011;18147;51.952;6.146;2023-02-28T00:02:46;18.20;;;8.73;;
31537;SDS011;18147;51.952;6.146;2023-02-28T00:05:13;19.90;;;8.75;;
31537;SDS011;18147;51.952;6.146;2023-02-28T00:07:40;14.68;;;8.02;;
31537;SDS011;18147;51.952;6.146;2023-02-28T00:10:07;13.68;;;7.38;;
31537;SDS011;18147;51.952;6.146;2023-02-28T00:12:35;14.73;;;7.35;;
31537;SDS011;18147;51.952;6.146;2023-02-28T00:15:02;12.50;;;7.70;;
31537;SDS011;18147;51.952;6.146;2023-02-28T00:17:30;16.50;;;9.30;;
31537;SDS011;18147;51.952;6.146;2023-02-28T00:19:56;13.73;;;8.48;;
31537;SDS011;18147;51.952;6.146;2023-02-28T00:22:21;16.45;;;7.95;;
31537;SDS011;18147;51.952;6.146;2023-02-28T00:24:47;13.75;;;8.00;;
31537;SDS011;18147;51.952;6.146;2023-02-28T00:27:13;14.20;;;7.78;;
31537;SDS011;18147;51.952;6.146;2023-02-28T00:29:39;21.25;;;8.15;;
31537;SDS011;18147;51.952;6.146;2023-02-28T00:32:05;15.43;;;7.72;;
31537;SDS011;18147;51.952;6.146;2023-02-28T00:34:31;15.18;;;7.95;;
31537;SDS011;18147;51.952;6.146;2023-02-28T00:37:02;19.63;;;7.97;;
31537;SDS011;18147;51.952;6.146;2023-02-28T00:39:33;18.65;;;7.10;;
31537;SDS011;18147;51.952;6.146;2023-02-28T00:41:59;15.23;;;8.23;;
31537;SDS011;18147;51.952;6.146;2023-02-28T00:44:25;15.48;;;8.50;;
31537;SDS011;18147;51.952;6.146;2023-02-28T00:46:50;13.77;;;7.72;;
31537;SDS011;18147;51.952;6.146;2023-02-28T00:49:16;11.23;;;7.47;;
31537;SDS011;18147;51.952;6.146;2023-02-28T00:51:42;11.52;;;7.35;;
31537;SDS011;18147;51.952;6.146;2023-02-28T00:54:08;11.77;;;7.43;;
31537;SDS011;18147;51.952;6.146;2023-02-28T00:56:33;14.60;;;7.95;;
31537;SDS011;18147;51.952;6.146;2023-02-28T00:58:59;13.32;;;7.57;;
31537;SDS011;18147;51.952;6.146;2023-02-28T01:01:24;13.20;;;7.70;;
31537;SDS011;18147;51.952;6.146;2023-02-28T01:03:50;15.98;;;8.02;;
31537;SDS011;18147;51.952;6.146;2023-02-28T01:06:15;12.85;;;7.38;;
31537;SDS011;18147;51.952;6.146;2023-02-28T01:08:40;20.77;;;7.03;;
31537;SDS011;18147;51.952;6.146;2023-02-28T01:11:07;19.05;;;8.55;;
31537;SDS011;18147;51.952;6.146;2023-02-28T01:13:33;14.93;;;8.05;;
31537;SDS011;18147;51.952;6.146;2023-02-28T01:15:58;14.63;;;6.45;;
31537;SDS011;18147;51.952;6.146;2023-02-28T01:18:24;11.95;;;7.20;;
31537;SDS011;18147;51.952;6.146;2023-02-28T01:20:50;13.07;;;7.50;;
31537;SDS011;18147;51.952;6.146;2023-02-28T01:23:18;15.45;;;7.60;;
31537;SDS011;18147;51.952;6.146;2023-02-28T01:25:45;15.48;;;8.55;;
31537;SDS011;18147;51.952;6.146;2023-02-28T01:28:11;15.50;;;7.18;;
31537;SDS011;18147;51.952;6.146;2023-02-28T01:30:36;16.92;;;7.03;;
31537;SDS011;18147;51.952;6.146;2023-02-28T01:33:02;16.35;;;8.10;;
31537;SDS011;18147;51.952;6.146;2023-02-28T01:35:27;11.18;;;6.50;;
31537;SDS011;18147;51.952;6.146;2023-02-28T01:37:53;17.92;;;7.88;;
31537;SDS011;18147;51.952;6.146;2023-02-28T01:40:18;15.15;;;7.70;;
31537;SDS011;18147;51.952;6.146;2023-02-28T01:42:44;10.13;;;6.28;;
31537;SDS011;18147;51.952;6.146;2023-02-28T01:45:21;14.45;;;7.97;;
31537;SDS011;18147;51.952;6.146;2023-02-28T01:47:52;15.82;;;7.45;;
31537;SDS011;18147;51.952;6.146;2023-02-28T01:50:22;14.52;;;7.07;;
31537;SDS011;18147;51.952;6.146;2023-02-28T01:52:52;9.73;;;6.70;;
31537;SDS011;18147;51.952;6.146;2023-02-28T01:55:22;11.88;;;6.82;;
31537;SDS011;18147;51.952;6.146;2023-02-28T01:57:50;17.40;;;7.80;;
31537;SDS011;18147;51.952;6.146;2023-02-28T02:00:21;14.55;;;7.95;;
31537;SDS011;18147;51.952;6.146;2023-02-28T02:02:51;14.15;;;6.45;;
31537;SDS011;18147;51.952;6.146;2023-02-28T02:05:22;14.48;;;7.28;;
31537;SDS011;18147;51.952;6.146;2023-02-28T02:07:51;12.50;;;7.80;;
31537;SDS011;18147;51.952;6.146;2023-02-28T02:24:09;12.88;;;7.38;;
31537;SDS011;18147;51.952;6.146;2023-02-28T02:37:20;13.70;;;7.55;;
31537;SDS011;18147;51.952;6.146;2023-02-28T02:42:29;16.48;;;7.63;;
31537;SDS011;18147;51.952;6.146;2023-02-28T02:45:01;15.70;;;7.40;;
31537;SDS011;18147;51.952;6.146;2023-02-28T02:48:01;12.95;;;8.07;;
31537;SDS011;18147;51.952;6.146;2023-02-28T02:50:30;13.90;;;7.05;;
31537;SDS011;18147;51.952;6.146;2023-02-28T02:53:02;18.73;;;8.75;;
31537;SDS011;18147;51.952;6.146;2023-02-28T02:55:31;14.75;;;8.23;;
31537;SDS011;18147;51.952;6.146;2023-02-28T02:58:04;14.23;;;7.70;;
31537;SDS011;18147;51.952;6.146;2023-02-28T03:00:34;14.85;;;7.28;;
31537;SDS011;18147;51.952;6.146;2023-02-28T03:03:04;17.27;;;8.05;;
31537;SDS011;18147;51.952;6.146;2023-02-28T03:08:13;18.95;;;9.00;;
31537;SDS011;18147;51.952;6.146;2023-02-28T03:10:43;17.13;;;8.27;;
31537;SDS011;18147;51.952;6.146;2023-02-28T03:13:21;11.60;;;6.97;;
31537;SDS011;18147;51.952;6.146;2023-02-28T03:19:06;15.88;;;7.38;;
31537;SDS011;18147;51.952;6.146;2023-02-28T03:24:49;10.90;;;7.38;;
31537;SDS011;18147;51.952;6.146;2023-02-28T03:27:48;15.93;;;8.75;;
31537;SDS011;18147;51.952;6.146;2023-02-28T03:33:16;18.92;;;9.48;;
31537;SDS011;18147;51.952;6.146;2023-02-28T03:35:52;14.50;;;7.03;;
31537;SDS011;18147;51.952;6.146;2023-02-28T03:41:20;16.02;;;7.82;;
31537;SDS011;18147;51.952;6.146;2023-02-28T03:43:56;11.75;;;7.10;;
31537;SDS011;18147;51.952;6.146;2023-02-28T03:46:31;17.60;;;7.13;;
31537;SDS011;18147;51.952;6.146;2023-02-28T03:49:35;16.77;;;7.45;;
31537;SDS011;18147;51.952;6.146;2023-02-28T03:52:00;13.25;;;6.63;;
31537;SDS011;18147;51.952;6.146;2023-02-28T03:54:30;15.50;;;7.43;;
31537;SDS011;18147;51.952;6.146;2023-02-28T03:56:59;14.80;;;7.32;;
31537;SDS011;18147;51.952;6.146;2023-02-28T03:59:43;16.88;;;7.28;;
31537;SDS011;18147;51.952;6.146;2023-02-28T04:02:12;15.35;;;7.45;;
31537;SDS011;18147;51.952;6.146;2023-02-28T04:04:38;12.80;;;7.20;;
31537;SDS011;18147;51.952;6.146;2023-02-28T04:07:10;12.57;;;6.82;;
31537;SDS011;18147;51.952;6.146;2023-02-28T04:09:36;12.40;;;6.50;;
31537;SDS011;18147;51.952;6.146;2023-02-28T04:12:01;14.88;;;6.65;;
31537;SDS011;18147;51.952;6.146;2023-02-28T04:14:27;10.82;;;6.43;;
31537;SDS011;18147;51.952;6.146;2023-02-28T04:16:53;11.40;;;6.63;;
31537;SDS011;18147;51.952;6.146;2023-02-28T04:19:18;12.98;;;6.55;;
31537;SDS011;18147;51.952;6.146;2023-02-28T04:21:45;14.52;;;8.10;;
31537;SDS011;18147;51.952;6.146;2023-02-28T04:24:14;12.55;;;6.45;;
31537;SDS011;18147;51.952;6.146;2023-02-28T04:26:44;12.98;;;7.93;;
31537;SDS011;18147;51.952;6.146;2023-02-28T04:29:12;11.20;;;6.60;;
31537;SDS011;18147;51.952;6.146;2023-02-28T04:31:42;15.27;;;6.70;;
31537;SDS011;18147;51.952;6.146;2023-02-28T04:34:08;20.55;;;8.65;;
31537;SDS011;18147;51.952;6.146;2023-02-28T04:36:33;11.10;;;6.43;;
31537;SDS011;18147;51.952;6.146;2023-02-28T04:38:59;13.15;;;6.85;;
31537;SDS011;18147;51.952;6.146;2023-02-28T04:41:24;16.75;;;7.13;;
31537;SDS011;18147;51.952;6.146;2023-02-28T04:43:52;11.50;;;7.55;;
31537;SDS011;18147;51.952;6.146;2023-02-28T04:46:18;14.48;;;6.47;;
31537;SDS011;18147;51.952;6.146;2023-02-28T04:48:44;14.40;;;6.55;;
31537;SDS011;18147;51.952;6.146;2023-02-28T04:51:12;12.20;;;6.60;;
31537;SDS011;18147;51.952;6.146;2023-02-28T04:53:39;13.68;;;6.63;;
31537;SDS011;18147;51.952;6.146;2023-02-28T04:56:06;10.95;;;6.35;;
31537;SDS011;18147;51.952;6.146;2023-02-28T04:58:33;16.05;;;6.50;;
31537;SDS011;18147;51.952;6.146;2023-02-28T05:01:05;11.20;;;6.72;;
31537;SDS011;18147;51.952;6.146;2023-02-28T05:03:42;19.88;;;7.57;;
31537;SDS011;18147;51.952;6.146;2023-02-28T05:06:09;16.85;;;7.43;;
31537;SDS011;18147;51.952;6.146;2023-02-28T05:08:35;12.45;;;6.90;;
31537;SDS011;18147;51.952;6.146;2023-02-28T05:11:01;13.88;;;6.13;;
31537;SDS011;18147;51.952;6.146;2023-02-28T05:13:28;13.52;;;6.40;;
31537;SDS011;18147;51.952;6.146;2023-02-28T05:15:54;10.77;;;6.05;;
31537;SDS011;18147;51.952;6.146;2023-02-28T05:18:19;15.93;;;6.30;;
31537;SDS011;18147;51.952;6.146;2023-02-28T05:20:45;9.38;;;5.57;;
31537;SDS011;18147;51.952;6.146;2023-02-28T05:23:11;12.63;;;5.95;;
31537;SDS011;18147;51.952;6.146;2023-02-28T05:25:37;11.85;;;6.57;;
31537;SDS011;18147;51.952;6.146;2023-02-28T05:28:04;11.27;;;6.20;;
31537;SDS011;18147;51.952;6.146;2023-02-28T05:30:29;11.57;;;7.13;;
31537;SDS011;18147;51.952;6.146;2023-02-28T05:32:56;15.75;;;6.60;;
31537;SDS011;18147;51.952;6.146;2023-02-28T05:35:22;14.07;;;6.55;;
31537;SDS011;18147;51.952;6.146;2023-02-28T05:37:48;14.40;;;8.38;;
31537;SDS011;18147;51.952;6.146;2023-02-28T05:40:14;17.15;;;8.27;;
31537;SDS011;18147;51.952;6.146;2023-02-28T05:42:40;14.35;;;6.57;;
31537;SDS011;18147;51.952;6.146;2023-02-28T05:45:06;12.20;;;7.88;;
31537;SDS011;18147;51.952;6.146;2023-02-28T05:47:34;12.98;;;6.95;;
31537;SDS011;18147;51.952;6.146;2023-02-28T05:50:00;18.30;;;7.15;;
31537;SDS011;18147;51.952;6.146;2023-02-28T05:52:26;12.82;;;7.03;;
31537;SDS011;18147;51.952;6.146;2023-02-28T05:54:52;13.35;;;7.43;;
31537;SDS011;18147;51.952;6.146;2023-02-28T05:57:18;12.60;;;6.72;;
31537;SDS011;18147;51.952;6.146;2023-02-28T05:59:43;14.15;;;7.13;;
31537;SDS011;18147;51.952;6.146;2023-02-28T06:02:12;13.77;;;7.60;;
31537;SDS011;18147;51.952;6.146;2023-02-28T06:04:39;17.13;;;7.53;;
31537;SDS011;18147;51.952;6.146;2023-02-28T06:07:06;14.48;;;6.82;;
31537;SDS011;18147;51.952;6.146;2023-02-28T06:09:32;10.98;;;6.53;;
31537;SDS011;18147;51.952;6.146;2023-02-28T06:11:58;13.95;;;7.40;;
31537;SDS011;18147;51.952;6.146;2023-02-28T06:14:24;14.25;;;7.65;;
31537;SDS011;18147;51.952;6.146;2023-02-28T06:16:50;14.80;;;7.97;;
31537;SDS011;18147;51.952;6.146;2023-02-28T06:19:16;16.08;;;8.40;;
31537;SDS011;18147;51.952;6.146;2023-02-28T06:21:42;15.18;;;7.63;;
31537;SDS011;18147;51.952;6.146;2023-02-28T06:24:08;11.80;;;6.53;;
31537;SDS011;18147;51.952;6.146;2023-02-28T06:26:34;13.05;;;7.18;;
31537;SDS011;18147;51.952;6.146;2023-02-28T06:29:00;11.02;;;6.22;;
31537;SDS011;18147;51.952;6.146;2023-02-28T06:31:26;11.25;;;7.47;;
31537;SDS011;18147;51.952;6.146;2023-02-28T06:33:54;17.23;;;8.60;;
31537;SDS011;18147;51.952;6.146;2023-02-28T06:36:21;13.82;;;7.75;;
31537;SDS011;18147;51.952;6.146;2023-02-28T06:38:47;10.10;;;6.95;;
31537;SDS011;18147;51.952;6.146;2023-02-28T06:41:20;11.68;;;7.60;;
31537;SDS011;18147;51.952;6.146;2023-02-28T06:43:49;16.02;;;7.72;;
31537;SDS011;18147;51.952;6.146;2023-02-28T06:46:15;16.00;;;7.45;;
31537;SDS011;18147;51.952;6.146;2023-02-28T06:48:40;14.88;;;7.50;;
31537;SDS011;18147;51.952;6.146;2023-02-28T06:51:12;15.55;;;8.13;;
31537;SDS011;18147;51.952;6.146;2023-02-28T06:53:40;12.35;;;7.53;;
31537;SDS011;18147;51.952;6.146;2023-02-28T06:56:07;17.25;;;8.88;;
31537;SDS011;18147;51.952;6.146;2023-02-28T06:58:33;15.23;;;6.88;;
31537;SDS011;18147;51.952;6.146;2023-02-28T07:00:59;12.32;;;7.10;;
31537;SDS011;18147;51.952;6.146;2023-02-28T07:03:25;16.92;;;7.38;;
31537;SDS011;18147;51.952;6.146;2023-02-28T07:05:51;12.75;;;7.45;;
31537;SDS011;18147;51.952;6.146;2023-02-28T07:08:16;11.18;;;6.80;;
31537;SDS011;18147;51.952;6.146;2023-02-28T07:10:42;12.80;;;7.40;;
31537;SDS011;18147;51.952;6.146;2023-02-28T07:13:08;10.60;;;7.25;;
31537;SDS011;18147;51.952;6.146;2023-02-28T07:15:34;17.75;;;6.97;;
31537;SDS011;18147;51.952;6.146;2023-02-28T07:18:00;15.77;;;6.85;;
31537;SDS011;18147;51.952;6.146;2023-02-28T07:20:26;12.50;;;6.68;;
31537;SDS011;18147;51.952;6.146;2023-02-28T07:22:51;16.48;;;7.38;;
31537;SDS011;18147;51.952;6.146;2023-02-28T07:25:23;11.13;;;6.38;;
31537;SDS011;18147;51.952;6.146;2023-02-28T07:27:49;8.52;;;5.53;;
31537;SDS011;18147;51.952;6.146;2023-02-28T07:30:15;9.25;;;5.68;;
31537;SDS011;18147;51.952;6.146;2023-02-28T07:32:41;11.27;;;6.47;;
31537;SDS011;18147;51.952;6.146;2023-02-28T07:35:06;9.82;;;5.75;;
31537;SDS011;18147;51.952;6.146;2023-02-28T07:37:32;8.70;;;5.18;;
31537;SDS011;18147;51.952;6.146;2023-02-28T07:40:02;9.27;;;5.90;;
31537;SDS011;18147;51.952;6.146;2023-02-28T07:42:31;11.65;;;5.25;;
31537;SDS011;18147;51.952;6.146;2023-02-28T07:44:57;10.45;;;5.60;;
31537;SDS011;18147;51.952;6.146;2023-02-28T07:47:24;6.30;;;4.90;;
31537;SDS011;18147;51.952;6.146;2023-02-28T07:49:49;18.83;;;7.50;;
31537;SDS011;18147;51.952;6.146;2023-02-28T07:52:15;9.27;;;5.05;;
31537;SDS011;18147;51.952;6.146;2023-02-28T07:54:40;12.18;;;4.55;;
31537;SDS011;18147;51.952;6.146;2023-02-28T07:57:06;5.88;;;3.25;;
31537;SDS011;18147;51.952;6.146;2023-02-28T07:59:31;7.05;;;3.13;;
31537;SDS011;18147;51.952;6.146;2023-02-28T08:01:57;5.53;;;3.17;;
31537;SDS011;18147;51.952;6.146;2023-02-28T08:04:23;9.48;;;2.88;;
31537;SDS011;18147;51.952;6.146;2023-02-28T08:06:48;6.90;;;2.60;;
31537;SDS011;18147;51.952;6.146;2023-02-28T08:09:17;5.32;;;2.30;;
31537;SDS011;18147;51.952;6.146;2023-02-28T08:11:42;6.10;;;3.13;;
31537;SDS011;18147;51.952;6.146;2023-02-28T08:14:08;4.78;;;2.20;;
31537;SDS011;18147;51.952;6.146;2023-02-28T08:16:33;4.05;;;2.45;;
31537;SDS011;18147;51.952;6.146;2023-02-28T08:18:59;7.75;;;2.70;;
31537;SDS011;18147;51.952;6.146;2023-02-28T08:21:24;3.47;;;2.55;;
31537;SDS011;18147;51.952;6.146;2023-02-28T08:23:50;4.47;;;2.08;;
31537;SDS011;18147;51.952;6.146;2023-02-28T08:26:16;5.90;;;2.60;;
31537;SDS011;18147;51.952;6.146;2023-02-28T08:28:43;7.35;;;2.40;;
31537;SDS011;18147;51.952;6.146;2023-02-28T08:31:13;3.92;;;2.58;;
31537;SDS011;18147;51.952;6.146;2023-02-28T08:33:40;2.85;;;2.40;;
31537;SDS011;18147;51.952;6.146;2023-02-28T08:36:06;2.72;;;2.20;;
31537;SDS011;18147;51.952;6.146;2023-02-28T08:38:33;3.00;;;2.40;;
31537;SDS011;18147;51.952;6.146;2023-02-28T08:40:59;4.38;;;2.13;;
31537;SDS011;18147;51.952;6.146;2023-02-28T08:43:27;4.55;;;3.05;;
31537;SDS011;18147;51.952;6.146;2023-02-28T08:45:54;3.75;;;2.85;;
31537;SDS011;18147;51.952;6.146;2023-02-28T08:48:22;4.50;;;2.42;;
31537;SDS011;18147;51.952;6.146;2023-02-28T08:50:58;2.95;;;2.58;;
31537;SDS011;18147;51.952;6.146;2023-02-28T08:53:29;4.22;;;2.72;;
31537;SDS011;18147;51.952;6.146;2023-02-28T08:56:02;4.47;;;3.00;;
31537;SDS011;18147;51.952;6.146;2023-02-28T08:58:29;3.55;;;2.60;;
31537;SDS011;18147;51.952;6.146;2023-02-28T09:00:55;6.10;;;3.00;;
31537;SDS011;18147;51.952;6.146;2023-02-28T09:03:21;3.92;;;2.67;;
31537;SDS011;18147;51.952;6.146;2023-02-28T09:05:57;5.82;;;2.72;;
31537;SDS011;18147;51.952;6.146;2023-02-28T09:08:24;4.53;;;2.75;;
31537;SDS011;18147;51.952;6.146;2023-02-28T09:10:50;5.53;;;3.35;;
31537;SDS011;18147;51.952;6.146;2023-02-28T09:13:17;3.60;;;2.20;;
31537;SDS011;18147;51.952;6.146;2023-02-28T09:15:43;4.95;;;2.15;;
31537;SDS011;18147;51.952;6.146;2023-02-28T09:18:08;3.47;;;2.17;;
31537;SDS011;18147;51.952;6.146;2023-02-28T09:20:36;4.30;;;3.08;;
31537;SDS011;18147;51.952;6.146;2023-02-28T09:23:03;2.20;;;1.25;;
31537;SDS011;18147;51.952;6.146;2023-02-28T09:25:28;2.40;;;1.65;;
31537;SDS011;18147;51.952;6.146;2023-02-28T09:27:53;1.58;;;1.30;;
31537;SDS011;18147;51.952;6.146;2023-02-28T09:30:19;3.33;;;1.65;;
31537;SDS011;18147;51.952;6.146;2023-02-28T09:32:45;2.13;;;1.52;;
31537;SDS011;18147;51.952;6.146;2023-02-28T09:35:17;4.22;;;1.60;;
31537;SDS011;18147;51.952;6.146;2023-02-28T09:37:43;3.47;;;1.48;;
31537;SDS011;18147;51.952;6.146;2023-02-28T09:40:09;1.60;;;1.50;;
31537;SDS011;18147;51.952;6.146;2023-02-28T09:42:37;2.75;;;1.50;;
31537;SDS011;18147;51.952;6.146;2023-02-28T09:45:05;3.67;;;1.70;;
31537;SDS011;18147;51.952;6.146;2023-02-28T09:47:41;2.90;;;1.90;;
31537;SDS011;18147;51.952;6.146;2023-02-28T09:50:28;3.20;;;1.77;;
31537;SDS011;18147;51.952;6.146;2023-02-28T09:52:58;3.05;;;2.10;;
31537;SDS011;18147;51.952;6.146;2023-02-28T09:58:33;5.30;;;2.10;;
31537;SDS011;18147;51.952;6.146;2023-02-28T10:01:15;2.83;;;2.05;;
31537;SDS011;18147;51.952;6.146;2023-02-28T10:06:46;2.08;;;1.88;;
31537;SDS011;18147;51.952;6.146;2023-02-28T10:11:43;4.72;;;1.90;;
31537;SDS011;18147;51.952;6.146;2023-02-28T10:14:21;2.53;;;2.10;;
31537;SDS011;18147;51.952;6.146;2023-02-28T10:16:56;2.92;;;1.92;;
31537;SDS011;18147;51.952;6.146;2023-02-28T10:19:35;2.20;;;1.63;;
31537;SDS011;18147;51.952;6.146;2023-02-28T10:22:29;3.60;;;1.75;;
31537;SDS011;18147;51.952;6.146;2023-02-28T10:25:05;3.42;;;1.92;;
31537;SDS011;18147;51.952;6.146;2023-02-28T10:27:43;3.50;;;2.00;;
31537;SDS011;18147;51.952;6.146;2023-02-28T10:30:09;3.67;;;2.45;;
31537;SDS011;18147;51.952;6.146;2023-02-28T10:32:37;2.53;;;1.65;;
31537;SDS011;18147;51.952;6.146;2023-02-28T10:37:43;2.33;;;1.90;;
31537;SDS011;18147;51.952;6.146;2023-02-28T10:42:42;2.08;;;1.88;;
31537;SDS011;18147;51.952;6.146;2023-02-28T10:45:23;3.20;;;2.03;;
31537;SDS011;18147;51.952;6.146;2023-02-28T10:47:52;2.25;;;1.70;;
31537;SDS011;18147;51.952;6.146;2023-02-28T10:52:52;2.10;;;1.90;;
31537;SDS011;18147;51.952;6.146;2023-02-28T10:55:23;2.47;;;1.83;;
31537;SDS011;18147;51.952;6.146;2023-02-28T10:57:53;1.98;;;1.83;;
31537;SDS011;18147;51.952;6.146;2023-02-28T11:00:22;2.40;;;1.90;;
31537;SDS011;18147;51.952;6.146;2023-02-28T11:02:50;3.17;;;2.00;;
31537;SDS011;18147;51.952;6.146;2023-02-28T11:05:30;2.78;;;2.20;;
31537;SDS011;18147;51.952;6.146;2023-02-28T11:07:59;4.30;;;1.95;;
31537;SDS011;18147;51.952;6.146;2023-02-28T11:10:29;2.20;;;2.00;;
31537;SDS011;18147;51.952;6.146;2023-02-28T11:12:59;2.50;;;2.30;;
31537;SDS011;18147;51.952;6.146;2023-02-28T11:15:27;1.98;;;1.55;;
31537;SDS011;18147;51.952;6.146;2023-02-28T11:17:56;3.45;;;2.03;;
31537;SDS011;18147;51.952;6.146;2023-02-28T11:20:26;5.72;;;2.08;;
31537;SDS011;18147;51.952;6.146;2023-02-28T11:22:54;2.13;;;1.70;;
31537;SDS011;18147;51.952;6.146;2023-02-28T11:25:26;2.88;;;1.83;;
31537;SDS011;18147;51.952;6.146;2023-02-28T11:27:58;1.98;;;1.60;;
31537;SDS011;18147;51.952;6.146;2023-02-28T11:33:23;3.40;;;1.80;;
31537;SDS011;18147;51.952;6.146;2023-02-28T11:35:52;2.30;;;1.90;;
31537;SDS011;18147;51.952;6.146;2023-02-28T11:38:23;4.55;;;2.97;;
31537;SDS011;18147;51.952;6.146;2023-02-28T11:51:21;3.03;;;2.10;;
31537;SDS011;18147;51.952;6.146;2023-02-28T11:56:48;1.90;;;1.80;;
31537;SDS011;18147;51.952;6.146;2023-02-28T12:08:06;3.75;;;2.40;;
31537;SDS011;18147;51.952;6.146;2023-02-28T12:19:00;3.83;;;2.40;;
31537;SDS011;18147;51.952;6.146;2023-02-28T12:27:18;4.93;;;2.38;;
31537;SDS011;18147;51.952;6.146;2023-02-28T12:29:48;4.20;;;2.45;;
31537;SDS011;18147;51.952;6.146;2023-02-28T12:32:21;3.28;;;2.10;;
31537;SDS011;18147;51.952;6.146;2023-02-28T12:34:55;3.90;;;2.28;;
31537;SDS011;18147;51.952;6.146;2023-02-28T12:37:31;2.87;;;2.50;;
31537;SDS011;18147;51.952;6.146;2023-02-28T12:40:11;3.08;;;2.28;;
31537;SDS011;18147;51.952;6.146;2023-02-28T12:42:41;2.97;;;2.00;;
31537;SDS011;18147;51.952;6.146;2023-02-28T12:45:21;2.55;;;1.95;;
31537;SDS011;18147;51.952;6.146;2023-02-28T12:47:50;1.70;;;1.52;;
31537;SDS011;18147;51.952;6.146;2023-02-28T12:50:22;2.88;;;1.73;;
31537;SDS011;18147;51.952;6.146;2023-02-28T12:56:07;4.32;;;1.77;;
31537;SDS011;18147;51.952;6.146;2023-02-28T12:58:58;2.58;;;2.03;;
31537;SDS011;18147;51.952;6.146;2023-02-28T13:07:12;4.43;;;1.80;;
31537;SDS011;18147;51.952;6.146;2023-02-28T13:10:17;3.13;;;1.75;;
31537;SDS011;18147;51.952;6.146;2023-02-28T13:12:50;3.42;;;2.47;;
31537;SDS011;18147;51.952;6.146;2023-02-28T13:15:19;3.17;;;2.03;;
31537;SDS011;18147;51.952;6.146;2023-02-28T13:17:58;2.45;;;1.60;;
31537;SDS011;18147;51.952;6.146;2023-02-28T13:23:00;1.85;;;1.55;;
31537;SDS011;18147;51.952;6.146;2023-02-28T13:27:59;3.70;;;2.05;;
31537;SDS011;18147;51.952;6.146;2023-02-28T13:33:35;2.35;;;1.63;;
31537;SDS011;18147;51.952;6.146;2023-02-28T13:38:46;3.25;;;1.70;;
31537;SDS011;18147;51.952;6.146;2023-02-28T13:44:08;3.65;;;2.00;;
31537;SDS011;18147;51.952;6.146;2023-02-28T13:51:48;2.50;;;1.73;;
31537;SDS011;18147;51.952;6.146;2023-02-28T13:57:11;6.20;;;2.88;;
31537;SDS011;18147;51.952;6.146;2023-02-28T13:59:55;4.35;;;3.20;;
31537;SDS011;18147;51.952;6.146;2023-02-28T14:05:19;4.47;;;2.80;;
31537;SDS011;18147;51.952;6.146;2023-02-28T14:07:52;4.68;;;2.97;;
31537;SDS011;18147;51.952;6.146;2023-02-28T14:10:24;3.05;;;2.10;;
31537;SDS011;18147;51.952;6.146;2023-02-28T14:15:28;3.33;;;2.13;;
31537;SDS011;18147;51.952;6.146;2023-02-28T14:17:55;14.13;;;6.68;;
31537;SDS011;18147;51.952;6.146;2023-02-28T14:20:25;8.43;;;2.42;;
31537;SDS011;18147;51.952;6.146;2023-02-28T14:25:45;12.82;;;5.43;;
31537;SDS011;18147;51.952;6.146;2023-02-28T14:28:27;11.15;;;5.63;;
31537;SDS011;18147;51.952;6.146;2023-02-28T14:31:18;8.30;;;3.80;;
31537;SDS011;18147;51.952;6.146;2023-02-28T14:36:43;6.45;;;3.83;;
31537;SDS011;18147;51.952;6.146;2023-02-28T14:39:16;2.20;;;1.88;;
31537;SDS011;18147;51.952;6.146;2023-02-28T14:41:46;3.08;;;2.10;;
31537;SDS011;18147;51.952;6.146;2023-02-28T14:46:46;3.85;;;1.88;;
31537;SDS011;18147;51.952;6.146;2023-02-28T14:49:18;6.65;;;2.00;;
31537;SDS011;18147;51.952;6.146;2023-02-28T14:51:49;17.33;;;6.78;;
31537;SDS011;18147;51.952;6.146;2023-02-28T14:54:26;16.95;;;8.68;;
31537;SDS011;18147;51.952;6.146;2023-02-28T14:56:52;7.80;;;4.05;;
31537;SDS011;18147;51.952;6.146;2023-02-28T14:59:28;3.90;;;1.92;;
31537;SDS011;18147;51.952;6.146;2023-02-28T15:02:15;10.80;;;5.43;;
31537;SDS011;18147;51.952;6.146;2023-02-28T15:04:58;20.30;;;9.13;;
31537;SDS011;18147;51.952;6.146;2023-02-28T15:07:25;4.80;;;2.75;;
31537;SDS011;18147;51.952;6.146;2023-02-28T15:15:18;4.50;;;2.65;;
31537;SDS011;18147;51.952;6.146;2023-02-28T15:17:46;2.30;;;1.95;;
31537;SDS011;18147;51.952;6.146;2023-02-28T15:20:16;4.60;;;2.35;;
31537;SDS011;18147;51.952;6.146;2023-02-28T15:22:43;3.13;;;2.03;;
31537;SDS011;18147;51.952;6.146;2023-02-28T15:25:13;3.38;;;2.60;;
31537;SDS011;18147;51.952;6.146;2023-02-28T15:27:50;7.18;;;3.95;;
31537;SDS011;18147;51.952;6.146;2023-02-28T15:30:20;4.85;;;2.65;;
31537;SDS011;18147;51.952;6.146;2023-02-28T15:33:04;3.10;;;2.47;;
31537;SDS011;18147;51.952;6.146;2023-02-28T15:35:36;36.83;;;14.23;;
31537;SDS011;18147;51.952;6.146;2023-02-28T15:38:16;60.83;;;26.95;;
31537;SDS011;18147;51.952;6.146;2023-02-28T15:40:49;42.75;;;18.98;;
31537;SDS011;18147;51.952;6.146;2023-02-28T15:48:30;22.35;;;10.15;;
31537;SDS011;18147;51.952;6.146;2023-02-28T15:51:09;7.53;;;4.45;;
31537;SDS011;18147;51.952;6.146;2023-02-28T15:56:32;3.50;;;2.50;;
31537;SDS011;18147;51.952;6.146;2023-02-28T15:59:04;7.05;;;3.00;;
31537;SDS011;18147;51.952;6.146;2023-02-28T16:01:36;3.80;;;2.97;;
31537;SDS011;18147;51.952;6.146;2023-02-28T16:04:04;5.32;;;2.95;;
31537;SDS011;18147;51.952;6.146;2023-02-28T16:06:44;4.05;;;2.60;;
31537;SDS011;18147;51.952;6.146;2023-02-28T16:09:12;3.75;;;2.45;;
31537;SDS011;18147;51.952;6.146;2023-02-28T16:11:48;4.82;;;2.65;;
31537;SDS011;18147;51.952;6.146;2023-02-28T16:14:18;4.70;;;3.08;;
31537;SDS011;18147;51.952;6.146;2023-02-28T16:16:49;11.20;;;5.25;;
31537;SDS011;18147;51.952;6.146;2023-02-28T16:19:17;13.88;;;7.50;;
31537;SDS011;18147;51.952;6.146;2023-02-28T16:21:42;8.52;;;4.47;;
31537;SDS011;18147;51.952;6.146;2023-02-28T16:24:08;11.70;;;6.00;;
31537;SDS011;18147;51.952;6.146;2023-02-28T16:26:34;21.40;;;8.30;;
31537;SDS011;18147;51.952;6.146;2023-02-28T16:29:02;19.70;;;9.50;;
31537;SDS011;18147;51.952;6.146;2023-02-28T16:31:28;13.95;;;7.70;;
31537;SDS011;18147;51.952;6.146;2023-02-28T16:33:54;8.18;;;4.25;;
31537;SDS011;18147;51.952;6.146;2023-02-28T16:36:20;7.15;;;3.50;;
31537;SDS011;18147;51.952;6.146;2023-02-28T16:38:49;3.55;;;2.55;;
31537;SDS011;18147;51.952;6.146;2023-02-28T16:41:17;5.32;;;2.80;;
31537;SDS011;18147;51.952;6.146;2023-02-28T16:43:47;3.47;;;2.70;;
31537;SDS011;18147;51.952;6.146;2023-02-28T16:46:15;7.00;;;2.97;;
31537;SDS011;18147;51.952;6.146;2023-02-28T16:48:42;5.72;;;3.05;;
31537;SDS011;18147;51.952;6.146;2023-02-28T16:51:12;5.38;;;3.38;;
31537;SDS011;18147;51.952;6.146;2023-02-28T16:53:41;4.00;;;2.50;;
31537;SDS011;18147;51.952;6.146;2023-02-28T16:56:08;4.30;;;3.03;;
31537;SDS011;18147;51.952;6.146;2023-02-28T16:58:40;3.92;;;2.80;;
31537;SDS011;18147;51.952;6.146;2023-02-28T17:01:06;9.98;;;5.82;;
31537;SDS011;18147;51.952;6.146;2023-02-28T17:03:31;14.50;;;7.20;;
31537;SDS011;18147;51.952;6.146;2023-02-28T17:05:56;21.42;;;10.48;;
31537;SDS011;18147;51.952;6.146;2023-02-28T17:08:22;25.50;;;11.82;;
31537;SDS011;18147;51.952;6.146;2023-02-28T17:10:47;19.63;;;8.38;;
31537;SDS011;18147;51.952;6.146;2023-02-28T17:13:13;25.15;;;10.63;;
31537;SDS011;18147;51.952;6.146;2023-02-28T17:15:38;26.58;;;10.38;;
31537;SDS011;18147;51.952;6.146;2023-02-28T17:18:05;27.17;;;12.43;;
31537;SDS011;18147;51.952;6.146;2023-02-28T17:20:31;19.25;;;9.77;;
31537;SDS011;18147;51.952;6.146;2023-02-28T17:22:57;18.60;;;8.90;;
31537;SDS011;18147;51.952;6.146;2023-02-28T17:25:23;17.08;;;9.02;;
31537;SDS011;18147;51.952;6.146;2023-02-28T17:27:49;23.30;;;11.52;;